createdAt,value
2022-10-30T00:00:42.481Z,21.33
2022-10-30T00:03:16.394Z,20.83
2022-10-30T00:05:45.208Z,20.67
2022-10-30T00:08:13.768Z,20.30
2022-10-30T00:10:41.160Z,21.03
2022-10-30T00:13:08.482Z,18.70
2022-10-30T00:15:35.724Z,19.47
2022-10-30T00:18:02.461Z,20.23
2022-10-30T00:20:29.268Z,18.43
2022-10-30T00:22:56.290Z,17.43
2022-10-30T00:25:23.264Z,22.30
2022-10-30T00:27:49.784Z,21.07
2022-10-30T00:30:16.518Z,20.73
2022-10-30T00:32:43.901Z,20.83
2022-10-30T00:35:10.902Z,17.23
2022-10-30T00:37:37.412Z,20.37
2022-10-30T00:40:05.181Z,17.43
2022-10-30T00:42:32.573Z,21.50
2022-10-30T00:44:59.317Z,18.20
2022-10-30T00:47:39.905Z,18.03
2022-10-30T00:50:12.498Z,18.07
2022-10-30T00:52:53.890Z,18.47
2022-10-30T00:55:26.843Z,20.10
2022-10-30T00:57:54.021Z,18.33
2022-10-30T01:00:24.158Z,16.67
2022-10-30T01:02:52.514Z,21.37
2022-10-30T01:05:22.478Z,17.73
2022-10-30T01:07:49.029Z,18.73
2022-10-30T01:10:16.501Z,16.57
2022-10-30T01:12:44.720Z,17.80
2022-10-30T01:15:13.183Z,17.00
2022-10-30T01:18:16.613Z,18.50
2022-10-30T01:20:52.380Z,17.80
2022-10-30T01:23:37.231Z,20.90
2022-10-30T01:26:38.592Z,18.23
2022-10-30T01:29:26.673Z,17.70
2022-10-30T01:32:05.412Z,17.37
2022-10-30T01:34:49.890Z,15.13
2022-10-30T01:37:25.271Z,19.27
2022-10-30T01:39:51.796Z,15.37
2022-10-30T01:42:43.752Z,16.10
2022-10-30T01:45:31.513Z,15.63
2022-10-30T01:48:03.918Z,19.30
2022-10-30T01:51:08.306Z,15.27
2022-10-30T01:54:08.089Z,15.80
2022-10-30T01:56:40.379Z,16.93
2022-10-30T01:59:43.086Z,20.47
2022-10-30T02:02:10.687Z,12.37
2022-10-30T02:04:38.190Z,13.97
2022-10-30T02:07:04.757Z,15.03
2022-10-30T02:09:31.787Z,14.63
2022-10-30T02:11:59.720Z,13.33
2022-10-30T02:14:40.299Z,13.90
2022-10-30T02:17:08.134Z,14.07
2022-10-30T02:19:35.497Z,13.50
2022-10-30T02:22:02.191Z,12.70
2022-10-30T02:24:30.326Z,14.87
2022-10-30T02:26:56.889Z,14.70
2022-10-30T02:29:23.671Z,14.00
2022-10-30T02:31:50.514Z,12.20
2022-10-30T02:34:17.374Z,13.00
2022-10-30T02:36:43.913Z,11.77
2022-10-30T02:39:10.441Z,14.33
2022-10-30T02:41:37.115Z,13.70
2022-10-30T02:44:04.949Z,14.37
2022-10-30T02:46:31.497Z,16.47
2022-10-30T02:48:58.033Z,14.70
2022-10-30T02:51:24.622Z,19.27
2022-10-30T02:53:51.190Z,13.27
2022-10-30T02:56:17.994Z,14.93
2022-10-30T02:58:44.494Z,15.13
2022-10-30T03:01:14.639Z,13.43
2022-10-30T03:03:41.995Z,15.30
2022-10-30T03:06:11.106Z,11.63
2022-10-30T03:08:37.704Z,13.63
2022-10-30T03:11:12.874Z,16.70
2022-10-30T03:13:40.988Z,17.53
2022-10-30T03:16:10.981Z,14.60
2022-10-30T03:18:37.886Z,19.60
2022-10-30T03:21:06.567Z,13.53
2022-10-30T03:23:33.577Z,16.50
2022-10-30T03:26:00.424Z,16.13
2022-10-30T03:28:29.062Z,15.87
2022-10-30T03:31:22.013Z,19.30
2022-10-30T03:33:48.565Z,16.20
2022-10-30T03:36:15.596Z,16.97
2022-10-30T03:38:42.893Z,17.63
2022-10-30T03:41:10.105Z,19.43
2022-10-30T03:43:36.766Z,19.30
2022-10-30T03:46:03.522Z,16.07
2022-10-30T03:48:30.025Z,15.50
2022-10-30T03:50:58.903Z,21.30
2022-10-30T03:53:26.556Z,18.90
2022-10-30T03:55:56.763Z,19.77
2022-10-30T03:58:23.474Z,22.40
2022-10-30T04:00:50.029Z,18.17
2022-10-30T04:03:16.536Z,20.37
2022-10-30T04:05:43.121Z,20.17
2022-10-30T04:08:13.072Z,17.60
2022-10-30T04:10:44.395Z,17.90
2022-10-30T04:13:12.728Z,24.30
2022-10-30T04:15:39.515Z,15.87
2022-10-30T04:18:06.404Z,18.77
2022-10-30T04:20:33.072Z,18.50
2022-10-30T04:23:04.801Z,22.53
2022-10-30T04:25:33.119Z,17.70
2022-10-30T04:28:00.910Z,20.33
2022-10-30T04:30:27.797Z,18.07
2022-10-30T04:32:56.567Z,16.40
2022-10-30T04:35:26.836Z,19.70
2022-10-30T04:37:54.963Z,18.57
2022-10-30T04:40:23.498Z,22.13
2022-10-30T04:42:50.639Z,21.57
2022-10-30T04:45:18.079Z,21.33
2022-10-30T04:47:45.437Z,19.90
2022-10-30T04:50:12.539Z,17.57
2022-10-30T04:52:39.516Z,20.57
2022-10-30T04:55:07.244Z,19.07
2022-10-30T04:57:34.480Z,20.57
2022-10-30T05:00:01.012Z,22.67
2022-10-30T05:02:27.609Z,22.53
2022-10-30T05:04:54.449Z,20.03
2022-10-30T05:07:21.026Z,20.17
2022-10-30T05:09:47.563Z,18.53
2022-10-30T05:12:14.185Z,18.03
2022-10-30T05:14:40.671Z,20.67
2022-10-30T05:17:07.193Z,20.40
2022-10-30T05:19:33.746Z,23.60
2022-10-30T05:22:00.487Z,20.93
2022-10-30T05:24:26.936Z,21.13
2022-10-30T05:26:53.663Z,20.00
2022-10-30T05:29:20.140Z,20.37
2022-10-30T05:31:46.746Z,22.50
2022-10-30T05:34:13.256Z,20.80
2022-10-30T05:36:40.466Z,20.50
2022-10-30T05:39:07.326Z,17.30
2022-10-30T05:41:34.339Z,19.93
2022-10-30T05:44:00.904Z,19.00
2022-10-30T05:46:27.435Z,19.77
2022-10-30T05:48:53.926Z,17.80
2022-10-30T05:51:20.508Z,19.97
2022-10-30T05:53:49.915Z,19.30
2022-10-30T05:56:16.485Z,19.47
2022-10-30T05:58:43.008Z,23.13
2022-10-30T06:01:09.654Z,19.33
2022-10-30T06:03:36.215Z,21.00
2022-10-30T06:06:02.780Z,20.10
2022-10-30T06:08:29.272Z,18.73
2022-10-30T06:10:55.999Z,23.00
2022-10-30T06:13:22.609Z,21.83
2022-10-30T06:15:49.238Z,19.83
2022-10-30T06:18:15.787Z,25.13
2022-10-30T06:20:42.336Z,20.30
2022-10-30T06:23:10.257Z,17.37
2022-10-30T06:25:41.142Z,19.57
2022-10-30T06:28:10.279Z,18.37
2022-10-30T06:30:36.810Z,18.13
2022-10-30T06:33:05.485Z,20.80
2022-10-30T06:35:32.033Z,19.57
2022-10-30T06:38:00.387Z,16.23
2022-10-30T06:40:30.285Z,18.87
2022-10-30T06:42:57.784Z,17.70
2022-10-30T06:45:25.057Z,19.40
2022-10-30T06:47:52.273Z,23.50
2022-10-30T06:50:20.589Z,18.10
2022-10-30T06:52:48.265Z,18.00
2022-10-30T06:55:14.972Z,16.87
2022-10-30T06:57:41.951Z,17.87
2022-10-30T07:00:09.816Z,15.40
2022-10-30T07:02:36.400Z,14.00
2022-10-30T07:05:03.147Z,16.33
2022-10-30T07:07:30.092Z,16.37
2022-10-30T07:09:56.660Z,20.23
2022-10-30T07:12:23.601Z,21.43
2022-10-30T07:14:50.454Z,19.17
2022-10-30T07:17:17.251Z,22.57
2022-10-30T07:19:43.942Z,17.37
2022-10-30T07:22:10.856Z,17.60
2022-10-30T07:24:37.531Z,16.57
2022-10-30T07:27:04.457Z,17.60
2022-10-30T07:29:31.002Z,19.00
2022-10-30T07:32:02.702Z,18.73
2022-10-30T07:34:30.726Z,17.33
2022-10-30T07:36:57.609Z,15.67
2022-10-30T07:39:24.201Z,19.13
2022-10-30T07:41:50.823Z,19.23
2022-10-30T07:44:17.582Z,21.73
2022-10-30T07:46:44.265Z,24.43
2022-10-30T07:49:10.825Z,19.53
2022-10-30T07:51:37.380Z,20.33
2022-10-30T07:54:04.014Z,25.57
2022-10-30T07:56:30.552Z,26.80
2022-10-30T07:58:57.054Z,29.67
2022-10-30T08:01:23.690Z,24.57
2022-10-30T08:03:50.398Z,23.07
2022-10-30T08:06:20.019Z,22.83
2022-10-30T08:08:49.556Z,21.77
2022-10-30T08:11:16.103Z,24.57
2022-10-30T08:13:42.790Z,19.30
2022-10-30T08:16:09.389Z,22.60
2022-10-30T08:18:36.027Z,26.37
2022-10-30T08:21:02.614Z,26.27
2022-10-30T08:23:29.193Z,20.20
2022-10-30T08:26:00.423Z,27.30
2022-10-30T08:28:31.659Z,20.07
2022-10-30T08:31:00.666Z,19.33
2022-10-30T08:33:27.293Z,23.27
2022-10-30T08:35:56.793Z,23.50
2022-10-30T08:38:24.380Z,26.10
2022-10-30T08:40:51.675Z,20.30
2022-10-30T08:43:18.656Z,21.03
2022-10-30T08:45:45.185Z,21.57
2022-10-30T08:48:13.808Z,23.10
2022-10-30T08:50:40.729Z,26.13
2022-10-30T08:53:10.197Z,25.77
2022-10-30T08:55:36.829Z,21.13
2022-10-30T08:58:03.940Z,27.33
2022-10-30T09:00:30.837Z,19.43
2022-10-30T09:02:58.160Z,24.93
2022-10-30T09:05:25.045Z,24.60
2022-10-30T09:08:01.271Z,23.60
2022-10-30T09:10:28.765Z,26.60
2022-10-30T09:12:59.451Z,22.80
2022-10-30T09:15:26.805Z,23.27
2022-10-30T09:18:04.628Z,23.67
2022-10-30T09:20:31.848Z,23.80
2022-10-30T09:22:59.026Z,21.13
2022-10-30T09:25:26.147Z,23.10
2022-10-30T09:27:52.716Z,28.07
2022-10-30T09:30:19.356Z,26.60
2022-10-30T09:32:48.918Z,22.40
2022-10-30T09:35:17.687Z,23.47
2022-10-30T09:37:44.290Z,24.93
2022-10-30T09:40:19.438Z,18.73
2022-10-30T09:42:48.394Z,21.60
2022-10-30T09:45:34.507Z,21.00
2022-10-30T09:48:11.446Z,25.47
2022-10-30T09:51:09.794Z,22.93
2022-10-30T09:53:52.282Z,22.23
2022-10-30T09:56:29.744Z,17.90
2022-10-30T09:59:27.181Z,19.50
2022-10-30T10:02:27.113Z,24.53
2022-10-30T10:05:00.300Z,20.93
2022-10-30T10:07:37.721Z,27.13
2022-10-30T10:10:11.420Z,18.00
2022-10-30T10:12:43.059Z,19.87
2022-10-30T10:15:49.826Z,18.63
2022-10-30T10:18:25.520Z,23.53
2022-10-30T10:20:56.455Z,19.00
2022-10-30T10:23:39.157Z,23.13
2022-10-30T10:26:16.709Z,20.33
2022-10-30T10:28:45.944Z,24.07
2022-10-30T10:31:22.312Z,20.83
2022-10-30T10:34:09.058Z,20.60
2022-10-30T10:36:57.213Z,31.80
2022-10-30T10:39:26.866Z,21.97
2022-10-30T10:42:24.160Z,19.53
2022-10-30T10:45:35.276Z,17.77
2022-10-30T10:48:23.422Z,21.27
2022-10-30T10:50:55.651Z,22.37
2022-10-30T10:53:44.983Z,21.23
2022-10-30T10:56:13.772Z,23.83
2022-10-30T10:58:54.579Z,18.40
2022-10-30T11:01:30.260Z,20.70
2022-10-30T11:04:03.189Z,20.27
2022-10-30T11:06:36.231Z,20.47
2022-10-30T11:09:16.558Z,19.60
2022-10-30T11:11:47.145Z,19.23
2022-10-30T11:14:17.197Z,24.97
2022-10-30T11:17:17.759Z,17.23
2022-10-30T11:19:46.543Z,20.67
2022-10-30T11:22:37.240Z,18.50
2022-10-30T11:25:26.944Z,21.87
2022-10-30T11:27:57.718Z,16.83
2022-10-30T11:30:28.538Z,21.10
2022-10-30T11:32:59.095Z,20.50
2022-10-30T11:35:26.365Z,16.57
2022-10-30T11:38:13.704Z,20.20
2022-10-30T11:40:47.279Z,20.30
2022-10-30T11:43:18.933Z,19.50
2022-10-30T11:45:45.559Z,18.73
2022-10-30T11:48:34.016Z,19.57
2022-10-30T11:51:02.356Z,16.73
2022-10-30T11:53:35.215Z,17.73
2022-10-30T11:56:04.887Z,19.53
2022-10-30T11:58:37.874Z,18.60
2022-10-30T12:01:12.216Z,16.67
2022-10-30T12:03:40.833Z,16.40
2022-10-30T12:06:29.167Z,17.63
2022-10-30T12:09:04.672Z,24.83
2022-10-30T12:11:34.120Z,21.70
2022-10-30T12:14:01.024Z,15.57
2022-10-30T12:16:28.332Z,20.53
2022-10-30T12:19:02.023Z,17.23
2022-10-30T12:21:35.162Z,15.97
2022-10-30T12:24:07.014Z,17.50
2022-10-30T12:26:36.058Z,15.13
2022-10-30T12:29:07.098Z,18.97
2022-10-30T12:31:46.951Z,19.87
2022-10-30T12:34:40.362Z,20.20
2022-10-30T12:37:14.888Z,19.00
2022-10-30T12:39:57.013Z,21.53
2022-10-30T12:42:25.001Z,19.07
2022-10-30T12:45:05.737Z,21.30
2022-10-30T12:47:35.042Z,23.63
2022-10-30T12:50:17.619Z,20.10
2022-10-30T12:52:51.504Z,18.27
2022-10-30T12:55:24.268Z,23.00
2022-10-30T12:58:12.559Z,19.53
2022-10-30T13:00:50.473Z,23.07
2022-10-30T13:03:36.244Z,18.93
2022-10-30T13:06:24.040Z,17.40
2022-10-30T13:09:04.299Z,16.37
2022-10-30T13:11:43.300Z,14.53
2022-10-30T13:14:38.753Z,15.60
2022-10-30T13:17:11.083Z,20.40
2022-10-30T13:19:39.885Z,15.00
2022-10-30T13:22:15.675Z,15.13
2022-10-30T13:25:05.211Z,16.00
2022-10-30T13:27:43.829Z,14.40
2022-10-30T13:30:12.924Z,17.87
2022-10-30T13:32:53.555Z,18.27
2022-10-30T13:35:38.521Z,13.77
2022-10-30T13:38:23.176Z,14.33
2022-10-30T13:40:58.670Z,14.70
2022-10-30T13:43:32.814Z,18.63
2022-10-30T13:46:50.682Z,18.73
2022-10-30T13:49:46.175Z,14.73
2022-10-30T13:52:16.078Z,15.70
2022-10-30T13:55:04.638Z,14.27
2022-10-30T13:57:46.505Z,15.50
2022-10-30T14:00:43.242Z,15.77
2022-10-30T14:03:24.374Z,14.23
2022-10-30T14:05:58.741Z,24.13
2022-10-30T14:08:46.639Z,12.57
2022-10-30T14:11:14.381Z,20.47
2022-10-30T14:13:53.891Z,15.87
2022-10-30T14:16:43.777Z,19.33
2022-10-30T14:19:15.695Z,11.60
2022-10-30T14:21:43.836Z,12.57
2022-10-30T14:24:13.141Z,11.47
2022-10-30T14:26:49.950Z,14.20
2022-10-30T14:29:34.817Z,14.70
2022-10-30T14:32:13.200Z,10.93
2022-10-30T14:34:44.905Z,14.97
2022-10-30T14:37:12.967Z,10.53
2022-10-30T14:39:42.559Z,10.27
2022-10-30T14:42:23.464Z,14.60
2022-10-30T14:45:14.751Z,14.93
2022-10-30T14:47:57.465Z,14.37
2022-10-30T14:50:26.815Z,12.67
2022-10-30T14:53:11.214Z,15.47
2022-10-30T14:56:00.226Z,17.33
2022-10-30T14:58:29.566Z,17.07
2022-10-30T15:01:45.925Z,16.07
2022-10-30T15:04:27.673Z,17.37
2022-10-30T15:06:59.879Z,25.03
2022-10-30T15:09:56.315Z,25.23
2022-10-30T15:12:25.679Z,28.37
2022-10-30T15:14:59.350Z,27.50
2022-10-30T15:17:41.518Z,28.03
2022-10-30T15:20:15.950Z,26.60
2022-10-30T15:22:42.785Z,21.10
2022-10-30T15:25:33.587Z,17.00
2022-10-30T15:28:01.164Z,17.90
2022-10-30T15:30:28.369Z,18.63
2022-10-30T15:32:55.001Z,15.83
2022-10-30T15:35:24.573Z,15.90
2022-10-30T15:38:07.799Z,13.77
2022-10-30T15:40:36.196Z,14.47
2022-10-30T15:43:05.276Z,17.13
2022-10-30T15:45:44.474Z,11.30
2022-10-30T15:48:31.552Z,13.70
2022-10-30T15:51:04.077Z,10.27
2022-10-30T15:54:00.437Z,11.03
2022-10-30T15:56:44.376Z,13.20
2022-10-30T15:59:24.641Z,13.37
2022-10-30T16:01:54.871Z,11.87
2022-10-30T16:04:31.586Z,13.50
2022-10-30T16:07:00.932Z,14.83
2022-10-30T16:09:28.815Z,11.47
2022-10-30T16:11:58.400Z,22.27
2022-10-30T16:14:28.515Z,25.10
2022-10-30T16:16:59.345Z,35.93
2022-10-30T16:19:30.698Z,44.73
2022-10-30T16:21:58.877Z,42.10
2022-10-30T16:24:33.164Z,41.50
2022-10-30T16:27:26.103Z,48.83
2022-10-30T16:29:56.667Z,37.17
2022-10-30T16:32:31.074Z,38.60
2022-10-30T16:34:59.387Z,28.23
2022-10-30T16:37:38.541Z,26.40
2022-10-30T16:40:15.053Z,21.83
2022-10-30T16:42:45.159Z,18.67
2022-10-30T16:45:11.756Z,19.50
2022-10-30T16:47:45.849Z,28.80
2022-10-30T16:50:15.577Z,21.97
2022-10-30T16:52:43.506Z,19.03
2022-10-30T16:55:20.001Z,24.43
2022-10-30T16:57:52.548Z,30.77
2022-10-30T17:00:24.287Z,26.73
2022-10-30T17:02:55.744Z,23.27
2022-10-30T17:05:27.426Z,24.70
2022-10-30T17:07:59.597Z,26.93
2022-10-30T17:10:42.284Z,24.57
2022-10-30T17:13:33.831Z,19.70
2022-10-30T17:16:24.796Z,19.77
2022-10-30T17:18:53.262Z,16.70
2022-10-30T17:21:40.870Z,15.13
2022-10-30T17:24:20.584Z,15.83
2022-10-30T17:26:56.312Z,12.00
2022-10-30T17:29:38.142Z,11.23
2022-10-30T17:32:14.829Z,12.17
2022-10-30T17:34:41.384Z,12.73
2022-10-30T17:37:07.912Z,17.87
2022-10-30T17:39:34.425Z,19.43
2022-10-30T17:42:01.006Z,19.80
2022-10-30T17:44:30.722Z,22.00
2022-10-30T17:46:57.265Z,19.30
2022-10-30T17:49:28.088Z,21.00
2022-10-30T17:51:54.690Z,12.83
2022-10-30T17:54:21.493Z,18.13
2022-10-30T17:56:48.155Z,17.33
2022-10-30T17:59:14.862Z,14.60
2022-10-30T18:01:42.156Z,16.17
2022-10-30T18:04:19.598Z,21.47
2022-10-30T18:06:48.356Z,17.97
2022-10-30T18:09:14.975Z,16.17
2022-10-30T18:11:41.718Z,15.83
2022-10-30T18:14:10.571Z,17.03
2022-10-30T18:16:37.191Z,16.37
2022-10-30T18:19:03.689Z,17.53
2022-10-30T18:21:31.388Z,17.53
2022-10-30T18:23:58.103Z,18.33
2022-10-30T18:26:26.785Z,19.73
2022-10-30T18:28:54.622Z,18.63
2022-10-30T18:31:23.755Z,20.07
2022-10-30T18:33:51.040Z,19.17
2022-10-30T18:36:20.321Z,26.37
2022-10-30T18:38:47.318Z,21.70
2022-10-30T18:41:33.736Z,26.93
2022-10-30T18:44:01.252Z,31.60
2022-10-30T18:46:30.546Z,34.87
2022-10-30T18:48:57.686Z,27.33
2022-10-30T18:51:27.537Z,25.13
2022-10-30T18:53:55.124Z,26.47
2022-10-30T18:56:30.061Z,25.87
2022-10-30T18:59:01.980Z,26.17
2022-10-30T19:01:32.139Z,36.07
2022-10-30T19:04:03.870Z,56.33
2022-10-30T19:06:30.939Z,62.33
2022-10-30T19:08:57.464Z,53.43
2022-10-30T19:11:25.369Z,57.57
2022-10-30T19:13:52.495Z,53.37
2022-10-30T19:16:20.136Z,42.30
2022-10-30T19:18:47.530Z,38.13
2022-10-30T19:21:22.021Z,32.97
2022-10-30T19:23:48.985Z,25.97
2022-10-30T19:26:16.264Z,23.10
2022-10-30T19:28:43.501Z,20.20
2022-10-30T19:31:18.190Z,16.40
2022-10-30T19:33:45.765Z,11.53
2022-10-30T19:36:33.952Z,11.27
2022-10-30T19:39:07.276Z,12.00
2022-10-30T19:41:35.551Z,13.13
2022-10-30T19:44:02.075Z,10.37
2022-10-30T19:46:28.885Z,11.90
2022-10-30T19:48:57.711Z,14.27
2022-10-30T19:51:24.767Z,10.53
2022-10-30T19:53:53.174Z,12.70
2022-10-30T19:56:21.815Z,13.20
2022-10-30T19:58:49.016Z,10.03
2022-10-30T20:01:16.162Z,8.20
2022-10-30T20:03:43.042Z,15.23
2022-10-30T20:06:12.239Z,11.57
2022-10-30T20:08:38.806Z,13.63
2022-10-30T20:11:05.679Z,18.83
2022-10-30T20:13:33.438Z,22.77
2022-10-30T20:16:02.639Z,24.27
2022-10-30T20:18:31.904Z,31.83
2022-10-30T20:21:00.779Z,26.57
2022-10-30T20:23:28.066Z,33.43
2022-10-30T20:26:00.319Z,29.47
2022-10-30T20:28:38.527Z,33.23
2022-10-30T20:31:07.155Z,27.50
2022-10-30T20:33:34.874Z,21.47
2022-10-30T20:36:01.760Z,23.70
2022-10-30T20:38:32.961Z,15.10
2022-10-30T20:41:01.476Z,17.53
2022-10-30T20:43:32.785Z,14.40
2022-10-30T20:46:00.766Z,13.33
2022-10-30T20:48:27.942Z,16.33
2022-10-30T20:50:56.408Z,16.80
2022-10-30T20:53:23.184Z,19.70
2022-10-30T20:55:49.703Z,17.43
2022-10-30T20:58:16.642Z,14.13
2022-10-30T21:00:43.944Z,10.83
2022-10-30T21:03:14.414Z,9.00
2022-10-30T21:05:44.266Z,10.83
2022-10-30T21:08:12.406Z,10.67
2022-10-30T21:10:39.825Z,14.63
2022-10-30T21:13:09.331Z,9.93
2022-10-30T21:15:41.503Z,12.73
2022-10-30T21:18:09.322Z,12.57
2022-10-30T21:20:36.781Z,11.87
2022-10-30T21:23:03.841Z,14.97
2022-10-30T21:25:32.250Z,12.83
2022-10-30T21:27:59.124Z,18.90
2022-10-30T21:30:25.888Z,22.47
2022-10-30T21:32:52.877Z,20.53
2022-10-30T21:35:20.218Z,19.40
2022-10-30T21:37:46.757Z,19.70
2022-10-30T21:40:13.615Z,16.20
2022-10-30T21:42:40.157Z,15.97
2022-10-30T21:45:07.423Z,16.20
2022-10-30T21:47:33.965Z,15.57
2022-10-30T21:50:00.474Z,11.67
2022-10-30T21:52:27.181Z,12.00
2022-10-30T21:54:53.703Z,10.00
2022-10-30T21:57:20.231Z,14.83
2022-10-30T21:59:46.769Z,13.17
2022-10-30T22:02:15.293Z,10.90
2022-10-30T22:04:41.989Z,13.10
2022-10-30T22:07:08.764Z,10.43
2022-10-30T22:09:35.782Z,12.90
2022-10-30T22:12:02.918Z,11.83
2022-10-30T22:14:29.531Z,14.03
2022-10-30T22:16:56.339Z,10.90
2022-10-30T22:19:22.870Z,11.60
2022-10-30T22:21:49.445Z,15.10
2022-10-30T22:24:17.452Z,12.17
2022-10-30T22:26:44.025Z,13.13
2022-10-30T22:29:11.566Z,13.53
2022-10-30T22:31:38.725Z,13.40
2022-10-30T22:34:05.283Z,13.30
2022-10-30T22:36:33.484Z,13.70
2022-10-30T22:39:12.644Z,14.33
2022-10-30T22:41:39.842Z,13.57
2022-10-30T22:44:08.752Z,14.10
2022-10-30T22:46:36.212Z,16.53
2022-10-30T22:49:03.118Z,16.77
2022-10-30T22:51:32.718Z,20.17
2022-10-30T22:54:01.559Z,17.73
2022-10-30T22:56:31.189Z,18.17
2022-10-30T22:59:00.263Z,15.03
2022-10-30T23:01:29.229Z,15.33
2022-10-30T23:03:57.206Z,23.17
2022-10-30T23:06:23.978Z,20.07
2022-10-30T23:08:52.483Z,16.90
2022-10-30T23:11:19.157Z,15.93
2022-10-30T23:13:46.015Z,23.10
2022-10-30T23:16:21.420Z,20.13
2022-10-30T23:18:49.735Z,23.47
2022-10-30T23:21:19.530Z,20.33
2022-10-30T23:23:46.273Z,23.03
2022-10-30T23:26:21.233Z,20.57
2022-10-30T23:28:49.003Z,23.53
2022-10-30T23:31:25.305Z,23.97
2022-10-30T23:33:53.960Z,22.07
2022-10-30T23:36:20.749Z,19.57
2022-10-30T23:38:53.866Z,23.43
2022-10-30T23:41:21.573Z,22.93
2022-10-30T23:43:48.240Z,22.37
2022-10-30T23:46:14.789Z,19.20
2022-10-30T23:48:41.339Z,21.13
2022-10-30T23:51:08.696Z,18.50
2022-10-30T23:53:35.414Z,22.10
2022-10-30T23:56:02.560Z,24.83
2022-10-30T23:58:29.132Z,21.27
